sensor_id;sensor_type;location;lat;lon;timestamp;P1;durP1;ratioP1;P2;durP2;ratioP2
60306;SDS011;46155;52.364;6.580;2022-11-18T04:01:49;27.90;;;25.23;;
60306;SDS011;46155;52.364;6.580;2022-11-18T04:04:20;28.57;;;26.27;;
60306;SDS011;46155;52.364;6.580;2022-11-18T04:06:49;27.53;;;25.30;;
60306;SDS011;46155;52.364;6.580;2022-11-18T04:09:20;29.23;;;26.93;;
60306;SDS011;46155;52.364;6.580;2022-11-18T04:11:51;28.60;;;25.83;;
60306;SDS011;46155;52.364;6.580;2022-11-18T04:14:33;26.77;;;24.87;;
60306;SDS011;46155;52.364;6.580;2022-11-18T04:17:34;30.10;;;27.80;;
60306;SDS011;46155;52.364;6.580;2022-11-18T04:19:52;29.70;;;26.93;;
60306;SDS011;46155;52.364;6.580;2022-11-18T04:22:19;28.50;;;25.73;;
60306;SDS011;46155;52.364;6.580;2022-11-18T04:24:44;30.90;;;28.70;;
60306;SDS011;46155;52.364;6.580;2022-11-18T04:27:10;29.60;;;26.80;;
60306;SDS011;46155;52.364;6.580;2022-11-18T04:29:36;31.03;;;28.00;;
60306;SDS011;46155;52.364;6.580;2022-11-18T04:32:01;32.20;;;29.40;;
60306;SDS011;46155;52.364;6.580;2022-11-18T04:34:28;31.93;;;29.40;;
60306;SDS011;46155;52.364;6.580;2022-11-18T04:36:54;31.97;;;29.23;;
60306;SDS011;46155;52.364;6.580;2022-11-18T04:39:20;33.53;;;30.83;;
60306;SDS011;46155;52.364;6.580;2022-11-18T04:41:45;35.07;;;31.30;;
60306;SDS011;46155;52.364;6.580;2022-11-18T04:44:19;35.17;;;32.03;;
60306;SDS011;46155;52.364;6.580;2022-11-18T04:46:49;35.50;;;32.90;;
60306;SDS011;46155;52.364;6.580;2022-11-18T04:49:14;36.33;;;33.10;;
60306;SDS011;46155;52.364;6.580;2022-11-18T04:51:40;33.50;;;30.43;;
60306;SDS011;46155;52.364;6.580;2022-11-18T04:54:07;35.23;;;32.30;;
60306;SDS011;46155;52.364;6.580;2022-11-18T04:56:33;35.40;;;32.60;;
60306;SDS011;46155;52.364;6.580;2022-11-18T04:58:59;37.93;;;34.37;;
60306;SDS011;46155;52.364;6.580;2022-11-18T05:01:25;37.67;;;34.60;;
60306;SDS011;46155;52.364;6.580;2022-11-18T05:03:52;35.67;;;32.63;;
60306;SDS011;46155;52.364;6.580;2022-11-18T05:06:17;38.13;;;34.93;;
60306;SDS011;46155;52.364;6.580;2022-11-18T05:08:43;37.23;;;33.47;;
60306;SDS011;46155;52.364;6.580;2022-11-18T05:11:08;37.97;;;34.50;;
60306;SDS011;46155;52.364;6.580;2022-11-18T05:13:52;39.00;;;35.60;;
60306;SDS011;46155;52.364;6.580;2022-11-18T05:16:18;39.43;;;35.53;;
60306;SDS011;46155;52.364;6.580;2022-11-18T05:18:43;37.10;;;33.87;;
60306;SDS011;46155;52.364;6.580;2022-11-18T05:21:09;36.17;;;32.87;;
60306;SDS011;46155;52.364;6.580;2022-11-18T05:23:34;35.33;;;32.03;;
60306;SDS011;46155;52.364;6.580;2022-11-18T05:26:03;40.13;;;36.77;;
60306;SDS011;46155;52.364;6.580;2022-11-18T05:28:29;37.40;;;33.70;;
60306;SDS011;46155;52.364;6.580;2022-11-18T05:30:55;41.63;;;37.57;;
60306;SDS011;46155;52.364;6.580;2022-11-18T05:33:20;41.57;;;37.70;;
60306;SDS011;46155;52.364;6.580;2022-11-18T05:35:45;37.10;;;33.67;;
60306;SDS011;46155;52.364;6.580;2022-11-18T05:38:10;37.33;;;33.70;;
60306;SDS011;46155;52.364;6.580;2022-11-18T05:40:36;40.00;;;36.60;;
60306;SDS011;46155;52.364;6.580;2022-11-18T05:43:01;38.97;;;35.00;;
60306;SDS011;46155;52.364;6.580;2022-11-18T05:45:35;33.10;;;30.20;;
60306;SDS011;46155;52.364;6.580;2022-11-18T05:48:01;38.87;;;35.27;;
60306;SDS011;46155;52.364;6.580;2022-11-18T05:50:28;35.53;;;32.53;;
60306;SDS011;46155;52.364;6.580;2022-11-18T05:52:57;38.92;;;35.42;;
60306;SDS011;46155;52.364;6.580;2022-11-18T05:55:27;36.93;;;33.40;;
60306;SDS011;46155;52.364;6.580;2022-11-18T05:57:55;35.57;;;31.90;;
60306;SDS011;46155;52.364;6.580;2022-11-18T06:00:21;32.17;;;29.07;;
60306;SDS011;46155;52.364;6.580;2022-11-18T06:02:46;35.60;;;32.47;;
60306;SDS011;46155;52.364;6.580;2022-11-18T06:05:15;30.37;;;27.77;;
60306;SDS011;46155;52.364;6.580;2022-11-18T06:07:42;36.25;;;33.20;;
60306;SDS011;46155;52.364;6.580;2022-11-18T06:10:16;36.30;;;32.75;;
60306;SDS011;46155;52.364;6.580;2022-11-18T06:12:46;30.53;;;27.70;;
60306;SDS011;46155;52.364;6.580;2022-11-18T06:15:22;27.50;;;24.70;;
60306;SDS011;46155;52.364;6.580;2022-11-18T06:17:51;28.47;;;25.90;;
60306;SDS011;46155;52.364;6.580;2022-11-18T06:20:21;28.03;;;25.47;;
60306;SDS011;46155;52.364;6.580;2022-11-18T06:22:47;28.13;;;25.37;;
60306;SDS011;46155;52.364;6.580;2022-11-18T06:25:17;30.47;;;27.77;;
60306;SDS011;46155;52.364;6.580;2022-11-18T06:27:43;30.63;;;27.87;;
60306;SDS011;46155;52.364;6.580;2022-11-18T06:30:10;32.67;;;29.80;;
60306;SDS011;46155;52.364;6.580;2022-11-18T06:32:36;31.70;;;28.90;;
60306;SDS011;46155;52.364;6.580;2022-11-18T06:35:01;31.37;;;28.63;;
60306;SDS011;46155;52.364;6.580;2022-11-18T06:37:26;32.30;;;29.20;;
60306;SDS011;46155;52.364;6.580;2022-11-18T06:39:52;34.13;;;30.13;;
60306;SDS011;46155;52.364;6.580;2022-11-18T06:42:17;32.40;;;29.07;;
60306;SDS011;46155;52.364;6.580;2022-11-18T06:45:03;31.93;;;29.37;;
60306;SDS011;46155;52.364;6.580;2022-11-18T06:47:29;38.17;;;32.90;;
60306;SDS011;46155;52.364;6.580;2022-11-18T06:49:54;36.60;;;32.60;;
60306;SDS011;46155;52.364;6.580;2022-11-18T06:52:21;40.00;;;36.40;;
60306;SDS011;46155;52.364;6.580;2022-11-18T06:54:46;39.67;;;36.13;;
60306;SDS011;46155;52.364;6.580;2022-11-18T06:57:12;39.37;;;35.77;;
60306;SDS011;46155;52.364;6.580;2022-11-18T06:59:37;40.10;;;36.30;;
60306;SDS011;46155;52.364;6.580;2022-11-18T07:02:02;40.50;;;36.57;;
60306;SDS011;46155;52.364;6.580;2022-11-18T07:04:28;39.93;;;36.33;;
60306;SDS011;46155;52.364;6.580;2022-11-18T07:06:53;43.13;;;39.13;;
60306;SDS011;46155;52.364;6.580;2022-11-18T07:09:18;44.70;;;40.23;;
60306;SDS011;46155;52.364;6.580;2022-11-18T07:11:43;40.17;;;36.67;;
60306;SDS011;46155;52.364;6.580;2022-11-18T07:14:09;38.07;;;35.17;;
60306;SDS011;46155;52.364;6.580;2022-11-18T07:16:35;43.63;;;39.37;;
60306;SDS011;46155;52.364;6.580;2022-11-18T07:19:06;33.20;;;30.07;;
60306;SDS011;46155;52.364;6.580;2022-11-18T07:21:33;27.83;;;25.20;;
60306;SDS011;46155;52.364;6.580;2022-11-18T07:23:58;21.93;;;18.33;;
60306;SDS011;46155;52.364;6.580;2022-11-18T07:26:24;22.03;;;17.83;;
60306;SDS011;46155;52.364;6.580;2022-11-18T07:28:49;22.23;;;19.60;;
60306;SDS011;46155;52.364;6.580;2022-11-18T07:31:15;27.07;;;19.53;;
60306;SDS011;46155;52.364;6.580;2022-11-18T07:33:44;23.00;;;17.80;;
60306;SDS011;46155;52.364;6.580;2022-11-18T07:36:11;29.37;;;20.47;;
60306;SDS011;46155;52.364;6.580;2022-11-18T07:38:41;28.10;;;17.40;;
60306;SDS011;46155;52.364;6.580;2022-11-18T07:41:07;23.83;;;19.47;;
60306;SDS011;46155;52.364;6.580;2022-11-18T07:43:35;24.77;;;19.97;;
60306;SDS011;46155;52.364;6.580;2022-11-18T07:46:17;24.10;;;18.03;;
60306;SDS011;46155;52.364;6.580;2022-11-18T07:48:44;24.50;;;18.90;;
60306;SDS011;46155;52.364;6.580;2022-11-18T07:51:12;27.90;;;20.27;;
60306;SDS011;46155;52.364;6.580;2022-11-18T07:53:38;28.20;;;20.13;;
60306;SDS011;46155;52.364;6.580;2022-11-18T07:56:04;25.37;;;19.63;;
60306;SDS011;46155;52.364;6.580;2022-11-18T07:58:30;24.17;;;20.60;;
60306;SDS011;46155;52.364;6.580;2022-11-18T08:00:56;20.50;;;18.33;;
60306;SDS011;46155;52.364;6.580;2022-11-18T08:03:25;23.43;;;16.93;;
60306;SDS011;46155;52.364;6.580;2022-11-18T08:05:51;27.17;;;19.00;;
60306;SDS011;46155;52.364;6.580;2022-11-18T08:08:17;28.00;;;19.17;;
60306;SDS011;46155;52.364;6.580;2022-11-18T08:10:42;27.23;;;19.37;;
60306;SDS011;46155;52.364;6.580;2022-11-18T08:13:08;25.77;;;19.67;;
60306;SDS011;46155;52.364;6.580;2022-11-18T08:15:33;27.13;;;20.53;;
60306;SDS011;46155;52.364;6.580;2022-11-18T08:17:58;23.30;;;20.83;;
60306;SDS011;46155;52.364;6.580;2022-11-18T08:20:23;23.90;;;21.33;;
60306;SDS011;46155;52.364;6.580;2022-11-18T08:22:51;25.50;;;21.37;;
60306;SDS011;46155;52.364;6.580;2022-11-18T08:25:16;30.90;;;23.30;;
60306;SDS011;46155;52.364;6.580;2022-11-18T08:27:42;28.73;;;23.97;;
60306;SDS011;46155;52.364;6.580;2022-11-18T08:30:07;33.87;;;24.37;;
60306;SDS011;46155;52.364;6.580;2022-11-18T08:32:33;33.87;;;24.73;;
60306;SDS011;46155;52.364;6.580;2022-11-18T08:34:59;32.77;;;26.73;;
60306;SDS011;46155;52.364;6.580;2022-11-18T08:37:24;30.13;;;27.00;;
60306;SDS011;46155;52.364;6.580;2022-11-18T08:39:49;30.43;;;26.93;;
60306;SDS011;46155;52.364;6.580;2022-11-18T08:42:15;34.17;;;27.63;;
60306;SDS011;46155;52.364;6.580;2022-11-18T08:44:40;27.53;;;24.53;;
60306;SDS011;46155;52.364;6.580;2022-11-18T08:47:05;26.70;;;22.23;;
60306;SDS011;46155;52.364;6.580;2022-11-18T08:49:31;32.10;;;23.50;;
60306;SDS011;46155;52.364;6.580;2022-11-18T08:51:56;27.73;;;23.33;;
60306;SDS011;46155;52.364;6.580;2022-11-18T08:54:21;28.53;;;24.70;;
60306;SDS011;46155;52.364;6.580;2022-11-18T08:56:46;29.50;;;23.67;;
60306;SDS011;46155;52.364;6.580;2022-11-18T08:59:14;31.80;;;25.10;;
60306;SDS011;46155;52.364;6.580;2022-11-18T09:01:40;31.83;;;25.90;;
60306;SDS011;46155;52.364;6.580;2022-11-18T09:04:07;31.43;;;26.13;;
60306;SDS011;46155;52.364;6.580;2022-11-18T09:06:34;35.53;;;25.97;;
60306;SDS011;46155;52.364;6.580;2022-11-18T09:08:59;35.10;;;28.10;;
60306;SDS011;46155;52.364;6.580;2022-11-18T09:11:25;29.43;;;26.43;;
60306;SDS011;46155;52.364;6.580;2022-11-18T09:13:55;37.53;;;29.03;;
60306;SDS011;46155;52.364;6.580;2022-11-18T09:16:22;34.67;;;26.83;;
60306;SDS011;46155;52.364;6.580;2022-11-18T09:18:49;31.47;;;27.87;;
60306;SDS011;46155;52.364;6.580;2022-11-18T09:21:15;33.20;;;29.63;;
60306;SDS011;46155;52.364;6.580;2022-11-18T09:23:41;31.53;;;28.27;;
60306;SDS011;46155;52.364;6.580;2022-11-18T09:26:08;32.00;;;28.20;;
60306;SDS011;46155;52.364;6.580;2022-11-18T09:28:35;34.33;;;27.43;;
60306;SDS011;46155;52.364;6.580;2022-11-18T09:31:11;35.43;;;30.73;;
60306;SDS011;46155;52.364;6.580;2022-11-18T09:33:38;34.07;;;29.57;;
60306;SDS011;46155;52.364;6.580;2022-11-18T09:36:04;32.33;;;28.80;;
60306;SDS011;46155;52.364;6.580;2022-11-18T09:38:35;33.37;;;30.00;;
60306;SDS011;46155;52.364;6.580;2022-11-18T09:46:19;33.73;;;28.50;;
60306;SDS011;46155;52.364;6.580;2022-11-18T09:48:49;36.40;;;27.80;;
60306;SDS011;46155;52.364;6.580;2022-11-18T09:51:36;30.83;;;26.47;;
60306;SDS011;46155;52.364;6.580;2022-11-18T09:54:04;33.20;;;27.23;;
60306;SDS011;46155;52.364;6.580;2022-11-18T09:56:34;32.23;;;29.00;;
60306;SDS011;46155;52.364;6.580;2022-11-18T09:58:59;30.13;;;26.93;;
60306;SDS011;46155;52.364;6.580;2022-11-18T10:01:26;33.73;;;29.87;;
60306;SDS011;46155;52.364;6.580;2022-11-18T10:03:52;31.80;;;28.57;;
60306;SDS011;46155;52.364;6.580;2022-11-18T10:11:48;33.50;;;30.27;;
60306;SDS011;46155;52.364;6.580;2022-11-18T10:20:16;32.70;;;29.27;;
60306;SDS011;46155;52.364;6.580;2022-11-18T10:25:13;32.73;;;29.30;;
60306;SDS011;46155;52.364;6.580;2022-11-18T10:27:40;31.73;;;28.47;;
60306;SDS011;46155;52.364;6.580;2022-11-18T10:30:12;32.03;;;28.53;;
60306;SDS011;46155;52.364;6.580;2022-11-18T10:32:59;30.83;;;27.80;;
60306;SDS011;46155;52.364;6.580;2022-11-18T10:35:27;31.30;;;28.27;;
60306;SDS011;46155;52.364;6.580;2022-11-18T10:43:49;32.47;;;28.83;;
60306;SDS011;46155;52.364;6.580;2022-11-18T10:51:32;33.37;;;30.40;;
60306;SDS011;46155;52.364;6.580;2022-11-18T10:54:08;30.30;;;27.33;;
60306;SDS011;46155;52.364;6.580;2022-11-18T10:56:43;29.33;;;25.70;;
60306;SDS011;46155;52.364;6.580;2022-11-18T10:59:18;29.60;;;26.73;;
60306;SDS011;46155;52.364;6.580;2022-11-18T11:02:00;30.87;;;27.73;;
60306;SDS011;46155;52.364;6.580;2022-11-18T11:04:36;30.70;;;27.57;;
60306;SDS011;46155;52.364;6.580;2022-11-18T11:07:13;30.57;;;27.57;;
60306;SDS011;46155;52.364;6.580;2022-11-18T11:09:58;37.30;;;26.50;;
60306;SDS011;46155;52.364;6.580;2022-11-18T11:12:33;29.50;;;26.30;;
60306;SDS011;46155;52.364;6.580;2022-11-18T11:16:01;32.07;;;28.20;;
60306;SDS011;46155;52.364;6.580;2022-11-18T11:18:29;33.10;;;28.27;;
60306;SDS011;46155;52.364;6.580;2022-11-18T11:21:11;31.40;;;28.03;;
60306;SDS011;46155;52.364;6.580;2022-11-18T11:23:37;30.13;;;27.23;;
60306;SDS011;46155;52.364;6.580;2022-11-18T11:26:06;30.67;;;27.63;;
60306;SDS011;46155;52.364;6.580;2022-11-18T11:50:53;28.50;;;25.90;;
60306;SDS011;46155;52.364;6.580;2022-11-18T11:53:31;28.87;;;26.03;;
60306;SDS011;46155;52.364;6.580;2022-11-18T11:56:20;27.83;;;24.87;;
60306;SDS011;46155;52.364;6.580;2022-11-18T12:04:31;27.80;;;24.90;;
60306;SDS011;46155;52.364;6.580;2022-11-18T12:07:02;27.13;;;24.50;;
60306;SDS011;46155;52.364;6.580;2022-11-18T12:12:11;26.43;;;23.73;;
60306;SDS011;46155;52.364;6.580;2022-11-18T12:23:22;29.93;;;26.80;;
60306;SDS011;46155;52.364;6.580;2022-11-18T12:26:04;30.53;;;27.37;;
60306;SDS011;46155;52.364;6.580;2022-11-18T12:28:39;29.13;;;25.90;;
60306;SDS011;46155;52.364;6.580;2022-11-18T12:36:27;30.53;;;27.33;;
60306;SDS011;46155;52.364;6.580;2022-11-18T12:38:53;30.60;;;27.40;;
60306;SDS011;46155;52.364;6.580;2022-11-18T12:44:22;29.10;;;26.00;;
60306;SDS011;46155;52.364;6.580;2022-11-18T12:46:50;28.90;;;25.70;;
60306;SDS011;46155;52.364;6.580;2022-11-18T12:51:45;31.30;;;28.50;;
60306;SDS011;46155;52.364;6.580;2022-11-18T12:54:54;29.47;;;26.57;;
60306;SDS011;46155;52.364;6.580;2022-11-18T12:57:16;30.93;;;27.67;;
60306;SDS011;46155;52.364;6.580;2022-11-18T12:59:45;28.23;;;25.67;;
60306;SDS011;46155;52.364;6.580;2022-11-18T13:04:36;27.13;;;24.57;;
60306;SDS011;46155;52.364;6.580;2022-11-18T13:07:03;26.63;;;24.03;;
60306;SDS011;46155;52.364;6.580;2022-11-18T13:09:51;28.67;;;25.83;;
60306;SDS011;46155;52.364;6.580;2022-11-18T13:12:17;28.83;;;25.67;;
60306;SDS011;46155;52.364;6.580;2022-11-18T13:14:43;29.63;;;26.77;;
60306;SDS011;46155;52.364;6.580;2022-11-18T13:17:30;28.13;;;25.33;;
60306;SDS011;46155;52.364;6.580;2022-11-18T13:20:26;29.30;;;25.70;;
60306;SDS011;46155;52.364;6.580;2022-11-18T13:22:58;30.70;;;27.53;;
60306;SDS011;46155;52.364;6.580;2022-11-18T13:25:44;29.20;;;26.33;;
60306;SDS011;46155;52.364;6.580;2022-11-18T13:34:07;27.13;;;24.23;;
60306;SDS011;46155;52.364;6.580;2022-11-18T13:36:43;28.10;;;23.07;;
60306;SDS011;46155;52.364;6.580;2022-11-18T13:39:15;27.03;;;23.00;;
60306;SDS011;46155;52.364;6.580;2022-11-18T13:41:56;31.80;;;28.45;;
60306;SDS011;46155;52.364;6.580;2022-11-18T13:47:20;25.63;;;22.90;;
60306;SDS011;46155;52.364;6.580;2022-11-18T13:55:33;43.07;;;24.73;;
60306;SDS011;46155;52.364;6.580;2022-11-18T13:58:10;33.17;;;22.73;;
60306;SDS011;46155;52.364;6.580;2022-11-18T14:00:43;25.30;;;19.33;;
60306;SDS011;46155;52.364;6.580;2022-11-18T14:05:54;28.30;;;22.40;;
60306;SDS011;46155;52.364;6.580;2022-11-18T14:08:27;24.37;;;21.23;;
60306;SDS011;46155;52.364;6.580;2022-11-18T14:10:55;28.20;;;21.43;;
60306;SDS011;46155;52.364;6.580;2022-11-18T14:13:26;25.27;;;21.97;;
60306;SDS011;46155;52.364;6.580;2022-11-18T14:15:52;28.23;;;24.93;;
60306;SDS011;46155;52.364;6.580;2022-11-18T14:18:41;29.20;;;24.10;;
60306;SDS011;46155;52.364;6.580;2022-11-18T14:21:10;24.53;;;21.83;;
60306;SDS011;46155;52.364;6.580;2022-11-18T14:23:36;27.20;;;23.90;;
60306;SDS011;46155;52.364;6.580;2022-11-18T14:26:07;27.27;;;23.50;;
60306;SDS011;46155;52.364;6.580;2022-11-18T14:28:34;25.90;;;22.77;;
60306;SDS011;46155;52.364;6.580;2022-11-18T14:31:19;28.20;;;24.17;;
60306;SDS011;46155;52.364;6.580;2022-11-18T14:36:43;34.97;;;26.93;;
60306;SDS011;46155;52.364;6.580;2022-11-18T14:39:16;31.20;;;27.13;;
60306;SDS011;46155;52.364;6.580;2022-11-18T14:41:51;31.73;;;25.93;;
60306;SDS011;46155;52.364;6.580;2022-11-18T14:44:17;30.73;;;25.67;;
60306;SDS011;46155;52.364;6.580;2022-11-18T14:46:45;27.03;;;23.70;;
60306;SDS011;46155;52.364;6.580;2022-11-18T14:49:13;35.30;;;25.73;;
60306;SDS011;46155;52.364;6.580;2022-11-18T14:51:42;38.03;;;26.07;;
60306;SDS011;46155;52.364;6.580;2022-11-18T14:54:10;31.43;;;24.43;;
60306;SDS011;46155;52.364;6.580;2022-11-18T14:56:37;33.73;;;25.13;;
60306;SDS011;46155;52.364;6.580;2022-11-18T14:59:02;35.33;;;26.57;;
60306;SDS011;46155;52.364;6.580;2022-11-18T15:01:28;32.47;;;25.87;;
60306;SDS011;46155;52.364;6.580;2022-11-18T15:03:53;36.83;;;28.20;;
60306;SDS011;46155;52.364;6.580;2022-11-18T15:06:19;30.40;;;27.13;;
60306;SDS011;46155;52.364;6.580;2022-11-18T15:08:46;35.00;;;26.70;;
60306;SDS011;46155;52.364;6.580;2022-11-18T15:11:13;35.97;;;28.83;;
60306;SDS011;46155;52.364;6.580;2022-11-18T15:13:39;35.00;;;29.00;;
60306;SDS011;46155;52.364;6.580;2022-11-18T15:16:15;31.57;;;28.27;;
60306;SDS011;46155;52.364;6.580;2022-11-18T15:18:41;33.80;;;27.27;;
60306;SDS011;46155;52.364;6.580;2022-11-18T15:21:07;32.67;;;29.63;;
60306;SDS011;46155;52.364;6.580;2022-11-18T15:23:34;33.37;;;27.57;;
60306;SDS011;46155;52.364;6.580;2022-11-18T15:26:01;31.33;;;27.10;;
60306;SDS011;46155;52.364;6.580;2022-11-18T15:28:28;36.60;;;28.07;;
60306;SDS011;46155;52.364;6.580;2022-11-18T15:30:54;37.23;;;31.27;;
60306;SDS011;46155;52.364;6.580;2022-11-18T15:33:19;30.03;;;26.67;;
60306;SDS011;46155;52.364;6.580;2022-11-18T15:35:44;31.53;;;28.23;;
60306;SDS011;46155;52.364;6.580;2022-11-18T15:38:10;29.90;;;26.43;;
60306;SDS011;46155;52.364;6.580;2022-11-18T15:40:36;40.17;;;29.37;;
60306;SDS011;46155;52.364;6.580;2022-11-18T15:43:02;32.40;;;28.13;;
60306;SDS011;46155;52.364;6.580;2022-11-18T15:45:28;30.57;;;27.27;;
60306;SDS011;46155;52.364;6.580;2022-11-18T15:47:53;31.07;;;26.47;;
60306;SDS011;46155;52.364;6.580;2022-11-18T15:50:18;33.93;;;29.53;;
60306;SDS011;46155;52.364;6.580;2022-11-18T15:52:44;34.67;;;31.07;;
60306;SDS011;46155;52.364;6.580;2022-11-18T15:55:09;33.83;;;30.63;;
60306;SDS011;46155;52.364;6.580;2022-11-18T15:57:34;33.60;;;30.13;;
60306;SDS011;46155;52.364;6.580;2022-11-18T16:00:00;41.47;;;30.90;;
60306;SDS011;46155;52.364;6.580;2022-11-18T16:02:25;35.67;;;29.53;;
60306;SDS011;46155;52.364;6.580;2022-11-18T16:04:50;32.03;;;28.63;;
60306;SDS011;46155;52.364;6.580;2022-11-18T16:07:16;33.37;;;27.07;;
60306;SDS011;46155;52.364;6.580;2022-11-18T16:09:41;34.43;;;30.73;;
60306;SDS011;46155;52.364;6.580;2022-11-18T16:12:25;28.00;;;24.77;;
60306;SDS011;46155;52.364;6.580;2022-11-18T16:15:08;27.13;;;23.47;;
60306;SDS011;46155;52.364;6.580;2022-11-18T16:17:52;27.93;;;25.23;;
60306;SDS011;46155;52.364;6.580;2022-11-18T16:20:18;31.43;;;23.73;;
60306;SDS011;46155;52.364;6.580;2022-11-18T16:22:43;30.30;;;27.23;;
60306;SDS011;46155;52.364;6.580;2022-11-18T16:25:08;34.73;;;23.77;;
60306;SDS011;46155;52.364;6.580;2022-11-18T16:27:34;25.23;;;21.63;;
60306;SDS011;46155;52.364;6.580;2022-11-18T16:30:00;35.20;;;24.30;;
60306;SDS011;46155;52.364;6.580;2022-11-18T16:32:28;30.93;;;23.10;;
60306;SDS011;46155;52.364;6.580;2022-11-18T16:34:53;26.83;;;20.83;;
60306;SDS011;46155;52.364;6.580;2022-11-18T16:37:20;25.90;;;23.00;;
60306;SDS011;46155;52.364;6.580;2022-11-18T16:39:45;35.87;;;23.90;;
60306;SDS011;46155;52.364;6.580;2022-11-18T16:42:10;38.47;;;27.23;;
60306;SDS011;46155;52.364;6.580;2022-11-18T16:44:36;33.63;;;24.40;;
60306;SDS011;46155;52.364;6.580;2022-11-18T16:47:02;32.37;;;24.47;;
60306;SDS011;46155;52.364;6.580;2022-11-18T16:49:28;30.20;;;26.00;;
60306;SDS011;46155;52.364;6.580;2022-11-18T16:51:54;35.80;;;24.50;;
60306;SDS011;46155;52.364;6.580;2022-11-18T16:54:24;31.43;;;25.87;;
60306;SDS011;46155;52.364;6.580;2022-11-18T16:56:52;32.83;;;26.07;;
60306;SDS011;46155;52.364;6.580;2022-11-18T16:59:24;36.90;;;27.77;;
60306;SDS011;46155;52.364;6.580;2022-11-18T17:01:54;28.53;;;22.80;;
60306;SDS011;46155;52.364;6.580;2022-11-18T17:04:21;27.87;;;22.57;;
60306;SDS011;46155;52.364;6.580;2022-11-18T17:06:48;27.97;;;21.00;;
60306;SDS011;46155;52.364;6.580;2022-11-18T17:09:17;28.63;;;21.77;;
60306;SDS011;46155;52.364;6.580;2022-11-18T17:11:45;25.87;;;21.37;;
60306;SDS011;46155;52.364;6.580;2022-11-18T17:14:11;27.47;;;21.70;;
60306;SDS011;46155;52.364;6.580;2022-11-18T17:16:37;30.60;;;22.67;;
60306;SDS011;46155;52.364;6.580;2022-11-18T17:19:02;28.70;;;23.10;;
60306;SDS011;46155;52.364;6.580;2022-11-18T17:21:28;26.17;;;21.77;;
60306;SDS011;46155;52.364;6.580;2022-11-18T17:23:54;24.10;;;20.67;;
60306;SDS011;46155;52.364;6.580;2022-11-18T17:26:21;32.27;;;22.63;;
60306;SDS011;46155;52.364;6.580;2022-11-18T17:28:51;24.57;;;21.97;;
60306;SDS011;46155;52.364;6.580;2022-11-18T17:31:19;30.43;;;25.33;;
60306;SDS011;46155;52.364;6.580;2022-11-18T17:33:46;26.37;;;23.63;;
60306;SDS011;46155;52.364;6.580;2022-11-18T17:36:14;24.70;;;22.33;;
60306;SDS011;46155;52.364;6.580;2022-11-18T17:38:44;25.60;;;22.50;;
60306;SDS011;46155;52.364;6.580;2022-11-18T17:41:14;24.47;;;20.93;;
60306;SDS011;46155;52.364;6.580;2022-11-18T17:43:59;33.53;;;22.67;;
60306;SDS011;46155;52.364;6.580;2022-11-18T17:46:26;26.43;;;21.17;;
60306;SDS011;46155;52.364;6.580;2022-11-18T17:48:55;26.77;;;23.87;;
60306;SDS011;46155;52.364;6.580;2022-11-18T17:51:21;26.40;;;22.13;;
60306;SDS011;46155;52.364;6.580;2022-11-18T17:53:47;26.53;;;23.03;;
60306;SDS011;46155;52.364;6.580;2022-11-18T17:56:13;22.83;;;20.40;;
60306;SDS011;46155;52.364;6.580;2022-11-18T17:58:38;25.23;;;22.27;;
60306;SDS011;46155;52.364;6.580;2022-11-18T18:01:07;26.63;;;22.03;;
60306;SDS011;46155;52.364;6.580;2022-11-18T18:03:33;32.67;;;24.53;;
60306;SDS011;46155;52.364;6.580;2022-11-18T18:06:00;29.20;;;22.20;;
60306;SDS011;46155;52.364;6.580;2022-11-18T18:08:25;21.10;;;19.33;;
60306;SDS011;46155;52.364;6.580;2022-11-18T18:10:51;20.43;;;16.80;;
60306;SDS011;46155;52.364;6.580;2022-11-18T18:13:16;22.13;;;17.27;;
60306;SDS011;46155;52.364;6.580;2022-11-18T18:16:03;17.97;;;15.60;;
60306;SDS011;46155;52.364;6.580;2022-11-18T18:18:29;19.77;;;17.67;;
60306;SDS011;46155;52.364;6.580;2022-11-18T18:20:54;17.63;;;15.83;;
60306;SDS011;46155;52.364;6.580;2022-11-18T18:23:20;17.90;;;15.97;;
60306;SDS011;46155;52.364;6.580;2022-11-18T18:25:46;19.00;;;17.20;;
60306;SDS011;46155;52.364;6.580;2022-11-18T18:28:11;17.80;;;16.00;;
60306;SDS011;46155;52.364;6.580;2022-11-18T18:30:37;21.43;;;19.50;;
60306;SDS011;46155;52.364;6.580;2022-11-18T18:33:02;16.67;;;15.03;;
60306;SDS011;46155;52.364;6.580;2022-11-18T18:35:27;19.87;;;17.87;;
60306;SDS011;46155;52.364;6.580;2022-11-18T18:37:53;20.47;;;18.43;;
60306;SDS011;46155;52.364;6.580;2022-11-18T18:40:18;19.43;;;17.60;;
60306;SDS011;46155;52.364;6.580;2022-11-18T18:42:43;19.23;;;17.33;;
60306;SDS011;46155;52.364;6.580;2022-11-18T18:45:09;23.27;;;19.73;;
60306;SDS011;46155;52.364;6.580;2022-11-18T18:47:52;29.20;;;17.87;;
60306;SDS011;46155;52.364;6.580;2022-11-18T18:50:18;24.90;;;20.37;;
60306;SDS011;46155;52.364;6.580;2022-11-18T18:52:46;25.20;;;21.90;;
60306;SDS011;46155;52.364;6.580;2022-11-18T18:55:11;19.93;;;17.83;;
60306;SDS011;46155;52.364;6.580;2022-11-18T18:57:37;23.23;;;20.80;;
60306;SDS011;46155;52.364;6.580;2022-11-18T19:00:03;23.10;;;20.80;;
60306;SDS011;46155;52.364;6.580;2022-11-18T19:02:29;25.77;;;20.43;;
60306;SDS011;46155;52.364;6.580;2022-11-18T19:04:54;22.57;;;20.17;;
60306;SDS011;46155;52.364;6.580;2022-11-18T19:07:19;23.37;;;20.87;;
60306;SDS011;46155;52.364;6.580;2022-11-18T19:09:44;28.87;;;21.93;;
60306;SDS011;46155;52.364;6.580;2022-11-18T19:12:10;23.87;;;20.90;;
60306;SDS011;46155;52.364;6.580;2022-11-18T19:14:53;28.53;;;18.97;;
60306;SDS011;46155;52.364;6.580;2022-11-18T19:17:19;28.20;;;20.37;;
60306;SDS011;46155;52.364;6.580;2022-11-18T19:19:44;28.93;;;20.93;;
60306;SDS011;46155;52.364;6.580;2022-11-18T19:22:29;31.13;;;18.73;;
60306;SDS011;46155;52.364;6.580;2022-11-18T19:24:57;24.80;;;20.60;;
60306;SDS011;46155;52.364;6.580;2022-11-18T19:27:23;27.83;;;19.87;;
60306;SDS011;46155;52.364;6.580;2022-11-18T19:29:48;28.53;;;19.23;;
60306;SDS011;46155;52.364;6.580;2022-11-18T19:32:13;28.10;;;22.37;;
60306;SDS011;46155;52.364;6.580;2022-11-18T19:34:39;30.70;;;19.83;;
60306;SDS011;46155;52.364;6.580;2022-11-18T19:37:04;34.30;;;20.60;;
60306;SDS011;46155;52.364;6.580;2022-11-18T19:39:30;28.87;;;20.17;;
60306;SDS011;46155;52.364;6.580;2022-11-18T19:41:55;24.07;;;18.60;;
60306;SDS011;46155;52.364;6.580;2022-11-18T19:44:20;31.67;;;22.57;;
60306;SDS011;46155;52.364;6.580;2022-11-18T19:46:46;26.03;;;19.30;;
60306;SDS011;46155;52.364;6.580;2022-11-18T19:49:11;28.53;;;19.07;;
60306;SDS011;46155;52.364;6.580;2022-11-18T19:51:37;29.73;;;19.97;;
60306;SDS011;46155;52.364;6.580;2022-11-18T19:54:05;31.17;;;20.33;;
60306;SDS011;46155;52.364;6.580;2022-11-18T19:56:30;32.73;;;19.50;;
60306;SDS011;46155;52.364;6.580;2022-11-18T19:58:55;28.00;;;19.37;;
60306;SDS011;46155;52.364;6.580;2022-11-18T20:01:24;26.93;;;20.30;;
60306;SDS011;46155;52.364;6.580;2022-11-18T20:03:51;27.07;;;19.53;;
60306;SDS011;46155;52.364;6.580;2022-11-18T20:06:18;26.37;;;16.73;;
60306;SDS011;46155;52.364;6.580;2022-11-18T20:08:45;29.40;;;16.83;;
60306;SDS011;46155;52.364;6.580;2022-11-18T20:11:11;27.97;;;19.53;;
60306;SDS011;46155;52.364;6.580;2022-11-18T20:13:41;29.83;;;18.43;;